Myrtle Beach International Airport
KMYR : now visible

Airfield :











YOU CAN JOIN US ON...

 
LOGIN :

Register | Disclaimer

   EN    FR    IT 

 









Legend :    VFR   Marginal VFR   IFR   Intensive IFR   Very Intensive IFR
Visi :
Ceiling :
>= 8 km
>= 3000ft
5 to 8 km
1000 to 3000 ft
1500m to 5 km
500 to 1000 ft
800 to 1500m
200 to 500 ft
< 800m
< 200 ft
Symbols :   Thunderstorms  Fog  Heavy snow  Heavy precipitations  Wind > 20 kt






- Airport Elevation : 25 ft
- IATA code : MYR


KMYR - Myrtle Beach International

CURRENT METAR :
  • 161756Z COR 36007KT 10SM CLR 30/20 A3002 RMK AO2 SLP165 T03000200 10306 20244 56011

EXPIRED METARs :
  • 161656Z 10SM FEW041 30/21 A3003 RMK AO2 SLP167 T03000211
  • 161556Z 36008KT 320V030 10SM SCT031 BKN041 29/22 A3004 RMK AO2 SLP172 T02890222

TAF KMYR
Valid from the 16 at 18:00 until the 17 at 18:00 UTC


161720Z 1618/1718 04007KT P6SM BKN150
FM162000 08006KT P6SM BKN150
FM162300 32005KT P6SM BKN150
FM171000 35006KT P6SM BKN100
KZJX FIR / North America



MET'MAP, your aeronautical weather chart ! - Copyright ORBIFLY December 2007 - Disclaimer

ORBIFLY MET'MAP TEAM :

Programming & Development : Alexandra Zaïnal
Concept & original design : Baudouin d'Aumeries
Assistance for programming : Marc-Olivier Méhu
Technical & hardware support : Manuel Goepfert

Contact : metmap@orbifly.com




SOURCES & CREDITS :

   NOAA       Earth
Advisory